Time;durP1;ratioP1;P1;durP2;ratioP2;P2;SDS_P1;SDS_P2;PMS_P1;PMS_P2;Temp;Humidity;BMP_temperature;BMP_pressure;BME280_temperature;BME280_humidity;BME280_pressure;Samples;Min_cycle;Max_cycle;Signal;HPM_P1;HPM_P2
2023/03/17 07:35:22;;;;;;;0.10;0.10;;;12.80;99.90;16.10;100505.00;;;;6334111;22;20248;-71
2023/03/17 07:38:16;;;;;;;0.73;0.73;;;12.70;99.90;16.80;100433.00;;;;6254544;22;1356487;-70
2023/03/17 07:40:56;;;;;;;0.27;0.27;;;12.80;99.90;16.50;100522.00;;;;6309394;22;20374;-71
2023/03/17 07:43:28;;;;;;;4.30;4.00;;;12.90;99.90;16.40;100536.00;;;;6282571;22;20167;-71
2023/03/17 07:45:56;;;;;;;0.63;0.40;;;13.00;99.90;16.00;100567.00;;;;6282719;22;20140;-71
2023/03/17 07:48:22;;;;;;;0.50;0.50;;;12.70;99.90;16.40;100531.00;;;;6309209;22;20194;-70
2023/03/17 07:50:51;;;;;;;0.10;0.10;;;12.70;99.90;16.00;100563.00;;;;6282063;22;20153;-71
2023/03/17 07:53:35;;;;;;;0.10;0.10;;;12.80;99.90;16.20;100558.00;;;;6256924;22;20584;-71
2023/03/17 07:56:22;;;;;;;0.10;0.10;;;12.90;99.90;16.50;100568.00;;;;6255827;22;20156;-72
2023/03/17 07:59:06;;;;;;;0.10;0.10;;;12.90;99.90;16.10;100568.00;;;;6309309;22;20145;-71
2023/03/17 08:01:34;;;;;;;0.10;0.10;;;12.80;99.90;16.10;100574.00;;;;6285765;22;20143;-71
2023/03/17 08:04:00;;;;;;;0.40;0.40;;;12.70;99.90;15.60;100586.00;;;;6281265;22;20164;-72
2023/03/17 08:07:05;;;;;;;0.67;0.67;;;12.60;99.90;16.00;100577.00;;;;6281394;22;20540;-71
2023/03/17 08:09:32;;;;;;;0.23;0.23;;;12.70;99.90;16.90;100561.00;;;;6284823;22;20235;-71
2023/03/17 08:11:58;;;;;;;1.03;1.03;;;13.10;99.90;17.30;100535.00;;;;6281388;22;20530;-72
2023/03/17 08:14:26;;;;;;;0.10;0.10;;;13.30;99.90;16.90;100558.00;;;;6308348;22;20180;-71
2023/03/17 08:16:52;;;;;;;0.23;0.23;;;13.40;99.90;17.20;100546.00;;;;6254489;22;20664;-71
2023/03/17 08:19:31;;;;;;;0.10;0.10;;;13.70;99.90;17.60;100540.00;;;;6281104;22;20169;-72
2023/03/17 08:21:57;;;;;;;0.10;0.10;;;13.80;99.90;17.70;100531.00;;;;6281356;22;20217;-70
2023/03/17 08:24:45;;;;;;;0.10;0.10;;;14.00;99.90;17.10;100560.00;;;;6281382;22;20143;-71
2023/03/17 08:27:28;;;;;;;1.03;1.03;;;13.90;99.90;17.40;100565.00;;;;6255954;22;20579;-72
2023/03/17 08:29:55;;;;;;;0.20;0.20;;;13.90;99.90;16.40;100590.00;;;;6254989;22;20170;-72
2023/03/17 08:33:14;;;;;;;0.30;0.30;;;13.70;99.90;16.70;100609.00;;;;6280170;22;20154;-71
2023/03/17 08:35:45;;;;;;;1.03;1.03;;;13.40;99.90;16.50;100594.00;;;;6309037;22;20153;-71
2023/03/17 08:38:12;;;;;;;0.10;0.10;;;13.70;99.90;17.30;100576.00;;;;6250832;22;20631;-71
2023/03/17 08:40:39;;;;;;;0.53;0.53;;;13.90;99.90;18.20;100567.00;;;;6277540;22;20153;-71
2023/03/17 08:43:07;;;;;;;0.33;0.33;;;14.30;99.90;19.60;100410.00;;;;6250524;22;20171;-72
2023/03/17 08:45:36;;;;;;;0.10;0.10;;;15.20;99.90;19.30;100501.00;;;;6250127;22;20161;-70
2023/03/17 08:48:03;;;;;;;0.60;0.60;;;15.90;99.90;19.60;100501.00;;;;6251488;22;20188;-69
2023/03/17 08:50:31;;;;;;;0.10;0.10;;;16.10;99.90;19.10;100525.00;;;;6250814;22;20145;-71
2023/03/17 08:53:00;;;;;;;0.20;0.20;;;16.10;99.90;20.00;100499.00;;;;6250777;22;20367;-70
2023/03/17 08:55:28;;;;;;;0.33;0.33;;;16.40;99.90;20.60;100497.00;;;;6277618;22;20198;-70
2023/03/17 08:57:58;;;;;;;0.10;0.10;;;16.80;99.90;20.20;100517.00;;;;6250452;22;20142;-68
2023/03/17 09:00:25;;;;;;;0.83;0.83;;;16.90;99.90;19.30;100550.00;;;;6223989;22;20210;-70
2023/03/17 09:03:08;;;;;;;0.10;0.10;;;16.40;99.90;19.10;100570.00;;;;6250558;22;20179;-70
2023/03/17 09:05:37;;;;;;;0.10;0.10;;;15.80;99.90;19.70;100563.00;;;;6224627;22;20160;-70
2023/03/17 09:08:06;;;;;;;0.32;0.20;;;16.00;99.90;20.70;100543.00;;;;6250155;22;20141;-71
2023/03/17 09:10:45;;;;;;;0.15;0.15;;;16.60;99.90;18.90;100573.00;;;;6277454;22;20138;-70
2023/03/17 09:13:11;;;;;;;0.10;0.10;;;16.00;99.90;20.10;100540.00;;;;6278207;22;20146;-72
2023/03/17 09:16:13;;;;;;;0.70;0.50;;;16.30;99.90;17.90;100582.00;;;;6250064;22;20217;-70
2023/03/17 09:18:43;;;;;;;0.10;0.10;;;15.50;99.90;19.30;100590.00;;;;6252187;22;20146;-68
2023/03/17 09:21:22;;;;;;;0.10;0.10;;;15.80;99.90;20.10;100592.00;;;;6275844;22;20140;-69
2023/03/17 09:23:50;;;;;;;0.10;0.10;;;16.20;99.90;19.60;100532.00;;;;6224938;22;20215;-68
2023/03/17 09:26:20;;;;;;;0.20;0.20;;;16.60;99.90;19.20;100551.00;;;;6249721;22;20155;-68
2023/03/17 09:29:04;;;;;;;0.30;0.30;;;16.20;99.90;19.50;100623.00;;;;6276964;22;20147;-68
2023/03/17 09:32:00;;;;;;;0.13;0.13;;;16.00;99.90;20.90;100614.00;;;;6251730;22;20238;-69
2023/03/17 09:34:54;;;;;;;0.20;0.20;;;16.50;99.90;17.90;100634.00;;;;6217840;22;20160;-72
2023/03/17 09:37:43;;;;;;;0.83;0.70;;;15.80;99.90;17.80;100647.00;;;;6147877;23;20182;-69
2023/03/17 09:40:25;;;;;;;0.10;0.10;;;15.10;99.90;18.30;100646.00;;;;6183913;23;20629;-72
2023/03/17 09:43:25;;;;;;;0.10;0.10;;;15.00;99.90;18.80;100634.00;;;;6182230;23;20660;-70
2023/03/17 09:46:20;;;;;;;0.10;0.10;;;15.20;99.90;18.50;100650.00;;;;6183422;23;20147;-69
2023/03/17 09:49:06;;;;;;;0.17;0.17;;;15.10;99.90;18.70;100645.00;;;;6233210;22;20210;-69
2023/03/17 09:51:47;;;;;;;0.20;0.20;;;15.10;99.90;18.60;100652.00;;;;6280769;22;20152;-67
2023/03/17 09:54:56;;;;;;;1.40;1.30;;;15.20;99.90;18.60;100648.00;;;;6280701;22;20144;-67
2023/03/17 09:57:48;;;;;;;1.80;1.70;;;15.30;99.90;19.20;100646.00;;;;6280540;22;20549;-67
2023/03/17 10:00:26;;;;;;;8.90;0.83;;;15.40;99.90;18.10;100655.00;;;;6279442;22;20157;-67
2023/03/17 10:03:43;;;;;;;0.20;0.20;;;15.20;99.90;18.20;100653.00;;;;6307168;22;20168;-68
2023/03/17 10:06:46;;;;;;;0.23;0.23;;;15.10;99.90;18.80;100571.00;;;;6307636;22;20228;-68
2023/03/17 10:09:55;;;;;;;0.10;0.10;;;15.10;99.90;19.10;100555.00;;;;6280265;22;20153;-68
2023/03/17 10:13:16;;;;;;;0.10;0.10;;;15.50;99.90;20.60;100596.00;;;;6280474;22;20231;-68
2023/03/17 10:16:18;;;;;;;0.10;0.10;;;16.00;99.90;22.20;100588.00;;;;6279999;22;20190;-68
2023/03/17 10:19:48;;;;;;;0.10;0.10;;;17.40;99.90;20.80;100621.00;;;;6256588;22;20167;-68
2023/03/17 10:34:13;;;;;;;1.17;0.63;;;15.30;99.90;18.90;100621.00;;;;5110941;27;20529;-70
2023/03/17 10:37:01;;;;;;;0.10;0.10;;;15.70;99.90;19.20;100544.00;;;;5086972;28;20189;-69
2023/03/17 10:40:03;;;;;;;0.20;0.20;;;16.00;99.90;19.70;100588.00;;;;5083336;28;20546;-69
2023/03/17 10:43:14;;;;;;;0.10;0.10;;;16.00;99.90;20.60;100575.00;;;;5076210;28;20187;-70
2023/03/17 10:46:24;;;;;;;1.20;0.80;;;16.70;99.90;19.40;100619.00;;;;5085429;28;20198;-68
2023/03/17 10:49:37;;;;;;;0.10;0.10;;;16.80;99.90;19.20;100615.00;;;;5077504;28;20633;-69
2023/03/17 10:52:58;;;;;;;0.30;0.30;;;16.40;99.90;21.50;100594.00;;;;5089020;28;20236;-69
2023/03/17 10:56:09;;;;;;;0.10;0.10;;;17.10;99.90;22.40;100569.00;;;;5062354;28;20555;-69
2023/03/17 10:59:42;;;;;;;12.85;2.05;;;17.90;99.90;21.40;100563.00;;;;5089186;28;20205;-69
2023/03/17 11:02:24;;;;;;;0.10;0.10;;;18.20;99.90;20.40;100579.00;;;;5087657;28;20662;-70
2023/03/17 11:05:37;;;;;;;0.68;0.68;;;17.50;99.90;19.50;100586.00;;;;5083926;28;20220;-70
2023/03/17 11:09:08;;;;;;;1.87;0.93;;;17.10;99.90;20.30;100577.00;;;;5080053;28;20734;-71
2023/03/17 11:12:24;;;;;;;0.20;0.20;;;16.60;99.90;20.00;100577.00;;;;5047741;28;20606;-71
2023/03/17 11:15:23;;;;;;;0.10;0.10;;;16.80;99.90;19.70;100540.00;;;;5088380;28;20651;-72
2023/03/17 11:17:58;;;;;;;0.13;0.13;;;16.70;99.90;21.40;100561.00;;;;5088681;28;20631;-69
2023/03/17 11:20:49;;;;;;;0.20;0.20;;;17.00;99.90;21.30;100549.00;;;;5088481;28;20659;-70
2023/03/17 11:23:54;;;;;;;0.10;0.10;;;17.30;99.90;22.10;100500.00;;;;5068362;28;20192;-73
2023/03/17 11:27:02;;;;;;;0.10;0.10;;;17.80;99.90;22.10;100554.00;;;;5088378;28;20247;-75
2023/03/17 11:29:46;;;;;;;4.47;1.48;;;18.00;99.90;21.10;100574.00;;;;5089362;28;20650;-70
2023/03/17 11:32:43;;;;;;;0.20;0.20;;;17.80;99.90;20.50;100586.00;;;;5094748;28;20274;-70
2023/03/17 11:35:38;;;;;;;0.65;0.65;;;17.50;99.90;20.40;100512.00;;;;5081119;28;20210;-70
2023/03/17 11:38:34;;;;;;;0.20;0.20;;;17.00;99.90;21.00;100575.00;;;;5088603;28;20638;-75
2023/03/17 11:41:43;;;;;;;0.10;0.10;;;17.40;99.90;21.80;100561.00;;;;5088542;28;20182;-70
2023/03/17 11:45:15;;;;;;;0.38;0.38;;;17.50;99.90;22.20;100546.00;;;;5075216;28;20575;-73
2023/03/17 11:48:10;;;;;;;0.10;0.10;;;18.50;99.90;22.50;100544.00;;;;5063366;28;20197;-71
2023/03/17 11:50:52;;;;;;;0.22;0.22;;;18.50;99.90;21.10;100550.00;;;;5065350;28;20196;-69
2023/03/17 11:53:48;;;;;;;0.98;0.98;;;18.20;99.90;22.40;100537.00;;;;5073501;28;20205;-69
2023/03/17 11:56:48;;;;;;;0.10;0.10;;;18.50;99.90;22.70;100523.00;;;;5073792;28;20189;-70
2023/03/17 11:59:54;;;;;;;0.10;0.10;;;18.70;99.90;23.20;100511.00;;;;5067053;28;20675;-73
2023/03/17 12:03:21;;;;;;;0.10;0.10;;;19.10;99.90;23.60;100523.00;;;;5075268;28;20197;-74
2023/03/17 12:05:54;;;;;;;0.40;0.40;;;19.60;99.90;21.80;100544.00;;;;5061952;28;20216;-74
2023/03/17 12:08:34;;;;;;;0.10;0.10;;;18.90;99.90;20.80;100563.00;;;;5073872;28;20190;-73
2023/03/17 12:11:06;;;;;;;0.10;0.10;;;18.10;99.90;21.90;100558.00;;;;5074359;28;20177;-74
2023/03/17 12:14:02;;;;;;;0.22;0.22;;;18.30;99.90;23.30;100530.00;;;;5057310;28;20556;-74
2023/03/17 12:16:37;;;;;;;0.20;0.20;;;19.00;99.90;22.00;100547.00;;;;5072352;28;20197;-73
2023/03/17 12:19:38;;;;;;;0.10;0.10;;;19.00;99.90;20.80;100560.00;;;;5057392;28;20200;-74
2023/03/17 12:22:55;;;;;;;0.13;0.13;;;18.50;99.90;20.80;100493.00;;;;5068138;28;20182;-74
2023/03/17 12:25:35;;;;;;;0.20;0.20;;;17.60;99.90;22.30;100559.00;;;;5072625;28;20246;-74
2023/03/17 12:28:14;;;;;;;0.10;0.10;;;18.40;99.90;22.30;100551.00;;;;5073822;28;20177;-74
2023/03/17 12:31:01;;;;;;;0.45;0.45;;;18.60;99.90;22.50;100496.00;;;;5057611;28;20190;-74
2023/03/17 12:33:42;;;;;;;0.68;0.68;;;19.00;99.90;23.70;100531.00;;;;5074889;28;20277;-74
2023/03/17 12:36:21;;;;;;;0.10;0.10;;;19.40;99.90;23.00;100523.00;;;;5074596;28;20190;-79
2023/03/17 12:39:30;;;;;;;0.10;0.10;;;19.80;99.90;23.80;100505.00;;;;5071781;28;20187;-75
2023/03/17 12:42:38;;;;;;;0.10;0.10;;;19.70;99.90;23.90;100510.00;;;;5059828;28;20281;-72
2023/03/17 12:45:35;;;;;;;0.98;0.98;;;19.80;99.90;23.10;100521.00;;;;5068548;28;20185;-71
2023/03/17 12:48:54;;;;;;;3.00;0.80;;;19.90;99.90;22.50;100517.00;;;;5065242;28;20193;-69
2023/03/17 12:52:00;;;;;;;0.10;0.10;;;19.60;99.90;23.30;100512.00;;;;5005344;28;20200;-69
2023/03/17 12:54:52;;;;;;;0.20;0.20;;;19.60;99.90;23.10;100517.00;;;;4997849;28;20195;-71
2023/03/17 12:58:00;;;;;;;0.20;0.20;;;19.50;99.90;23.30;100505.00;;;;4975022;28;20199;-67
2023/03/17 13:01:01;;;;;;;0.32;0.32;;;19.50;99.90;23.30;100515.00;;;;5007291;28;20661;-74
2023/03/17 13:04:05;;;;;;;0.82;0.82;;;19.60;99.90;21.80;100515.00;;;;4977295;28;20290;-71
2023/03/17 13:07:13;;;;;;;0.40;0.40;;;19.20;99.90;21.50;100513.00;;;;5003723;28;20217;-70
2023/03/17 13:09:57;;;;;;;0.30;0.30;;;18.70;99.90;22.50;100519.00;;;;5007612;28;20195;-73
2023/03/17 13:12:43;;;;;;;0.57;0.57;;;18.80;99.90;22.20;100515.00;;;;5012487;28;20604;-68
2023/03/17 13:15:57;;;;;;;0.32;0.32;;;18.80;99.90;22.30;100514.00;;;;5003181;28;20202;-70
2023/03/17 13:19:18;;;;;;;0.20;0.20;;;19.00;99.90;22.90;100500.00;;;;4998389;28;20200;-68
2023/03/17 13:22:28;;;;;;;0.47;0.38;;;19.20;99.90;22.20;100501.00;;;;4990645;28;20206;-70
2023/03/17 13:25:33;;;;;;;0.30;0.30;;;19.30;99.90;22.20;100502.00;;;;5009450;28;20194;-69
2023/03/17 13:28:14;;;;;;;0.20;0.20;;;19.10;99.90;23.00;100495.00;;;;5039614;28;20205;-68
2023/03/17 13:30:55;;;;;;;0.20;0.20;;;19.40;99.90;23.20;100454.00;;;;5071673;28;20275;-67
2023/03/17 13:33:44;;;;;;;1.50;1.40;;;19.60;99.90;22.90;100486.00;;;;5070145;28;20568;-67
2023/03/17 13:36:43;;;;;;;0.10;0.10;;;19.60;99.90;23.30;100472.00;;;;5070159;28;20182;-71
2023/03/17 13:39:51;;;;;;;0.43;0.43;;;19.70;99.90;23.10;100463.00;;;;5067327;28;20260;-70
2023/03/17 13:43:25;;;;;;;0.40;0.40;;;19.70;99.90;23.30;100449.00;;;;5043228;28;20612;-70
2023/03/17 13:46:40;;;;;;;0.20;0.20;;;19.60;99.90;23.40;100444.00;;;;4991449;28;20592;-69
2023/03/17 13:49:39;;;;;;;0.60;0.50;;;19.60;99.90;22.70;100458.00;;;;5062705;28;20528;-70
2023/03/17 13:52:35;;;;;;;0.25;0.25;;;19.60;99.90;22.80;100355.00;;;;5070469;28;20655;-70
2023/03/17 13:55:28;;;;;;;0.10;0.10;;;19.40;99.90;23.70;100452.00;;;;5068140;28;20196;-70
2023/03/17 13:58:06;;;;;;;3.00;1.00;;;19.60;99.90;23.60;100394.00;;;;5088123;28;20181;-70
2023/03/17 14:01:01;;;;;;;0.88;0.82;;;19.80;99.90;23.00;100443.00;;;;5064827;28;20256;-70
2023/03/17 14:03:41;;;;;;;0.20;0.20;;;19.80;99.90;23.10;100423.00;;;;5068008;28;20239;-70
2023/03/17 14:06:44;;;;;;;0.50;0.50;;;19.80;99.90;22.90;100428.00;;;;5059423;28;20185;-70
2023/03/17 14:09:41;;;;;;;0.40;0.40;;;19.70;99.90;23.20;100425.00;;;;5070629;28;20181;-70
2023/03/17 14:12:46;;;;;;;0.57;0.57;;;19.70;99.90;23.40;100366.00;;;;5068957;28;20310;-70
2023/03/17 14:16:02;;;;;;;0.10;0.10;;;19.80;99.90;22.90;100424.00;;;;5056650;28;20285;-70
2023/03/17 14:19:17;;;;;;;0.32;0.32;;;19.70;99.90;23.10;100425.00;;;;5046856;28;20614;-70
2023/03/17 14:21:43;;;;;;;0.13;0.13;;;19.60;99.90;24.10;100406.00;;;;5072039;28;20545;-70
2023/03/17 14:24:30;;;;;;;0.10;0.10;;;19.90;99.90;23.30;100412.00;;;;5071846;28;20184;-70
2023/03/17 14:27:22;;;;;;;0.28;0.28;;;19.80;99.90;21.90;100436.00;;;;5069290;28;20707;-70
2023/03/17 14:30:29;;;;;;;1.08;0.20;;;19.40;99.90;22.30;100333.00;;;;5054248;28;20186;-69
2023/03/17 14:33:06;;;;;;;0.10;0.10;;;19.30;99.90;22.40;100422.00;;;;5069585;28;20231;-69
2023/03/17 14:35:58;;;;;;;0.68;0.60;;;19.30;99.90;22.40;100448.00;;;;5083528;28;20179;-70
2023/03/17 14:38:41;;;;;;;0.60;0.60;;;19.20;99.90;22.80;100457.00;;;;5083462;28;20922;-70
2023/03/17 14:41:31;;;;;;;3.25;0.88;;;19.30;99.90;21.80;100466.00;;;;5071063;28;20271;-70
2023/03/17 14:44:00;;;;;;;0.20;0.20;;;19.00;99.90;22.30;100475.00;;;;5072670;28;20182;-70
2023/03/17 14:46:35;;;;;;;0.10;0.10;;;19.10;99.90;23.30;100459.00;;;;5071430;28;20178;-70
2023/03/17 14:49:19;;;;;;;0.10;0.10;;;19.40;99.90;21.90;100459.00;;;;5071175;28;20188;-70
2023/03/17 14:51:52;;;;;;;0.10;0.10;;;19.10;99.90;23.70;100463.00;;;;5067547;28;20527;-70
2023/03/17 14:55:03;;;;;;;0.40;0.30;;;19.40;99.90;22.70;100408.00;;;;5052442;28;20201;-70
2023/03/17 15:01:48;;;;;;;0.10;0.10;;;19.40;99.90;23.20;100467.00;;;;5062965;28;20193;-68
2023/03/17 15:05:15;;;;;;;0.10;0.10;;;19.10;99.90;23.40;100469.00;;;;5066117;28;20720;-71
2023/03/17 15:08:02;;;;;;;0.10;0.10;;;19.40;99.90;23.50;100406.00;;;;5075806;28;20193;-68
2023/03/17 15:10:41;;;;;;;2.30;0.85;;;19.50;99.90;24.10;100455.00;;;;5071287;28;20283;-67
2023/03/17 15:13:14;;;;;;;8.70;1.45;;;19.80;99.90;23.60;100465.00;;;;5070327;28;20667;-67
2023/03/17 15:15:50;;;;;;;0.20;0.20;;;20.00;99.90;22.60;100468.00;;;;5067863;28;20190;-67
2023/03/17 15:18:43;;;;;;;0.10;0.10;;;19.40;99.90;24.10;100402.00;;;;5068174;28;20191;-73
2023/03/17 15:21:34;;;;;;;0.50;0.50;;;19.80;99.90;24.20;100424.00;;;;5074572;28;20209;-72
2023/03/17 15:24:38;;;;;;;0.10;0.10;;;20.10;99.90;23.10;100451.00;;;;5074436;28;20201;-68
2023/03/17 15:27:27;;;;;;;0.10;0.10;;;19.80;99.90;23.90;100441.00;;;;5072011;28;20619;-71
2023/03/17 15:30:54;;;;;;;1.40;0.88;;;19.50;99.90;21.30;100480.00;;;;5074294;28;20181;-72
2023/03/17 15:34:04;;;;;;;0.20;0.20;;;19.00;99.90;21.90;100485.00;;;;5073313;28;20221;-72
2023/03/17 15:37:11;;;;;;;0.10;0.10;;;18.80;99.90;23.00;100467.00;;;;5089675;28;20208;-73
2023/03/17 15:40:30;;;;;;;2.40;0.88;;;19.00;99.90;20.80;100477.00;;;;5074629;28;20200;-72
2023/03/17 15:43:41;;;;;;;1.48;1.38;;;18.50;99.90;21.90;100447.00;;;;5073780;28;20224;-72
2023/03/17 15:46:53;;;;;;;1.50;0.85;;;18.40;99.90;19.90;100512.00;;;;5078976;28;20228;-72
2023/03/17 15:50:09;;;;;;;0.10;0.10;;;17.90;99.90;20.90;100502.00;;;;5063039;28;20192;-72
2023/03/17 15:53:20;;;;;;;0.20;0.20;;;17.80;99.90;22.50;100491.00;;;;5056654;28;20209;-72
2023/03/17 15:55:46;;;;;;;0.10;0.10;;;18.20;99.90;23.30;100489.00;;;;5073287;28;20180;-70
2023/03/17 15:58:28;;;;;;;1.17;0.97;;;18.80;99.90;20.10;100519.00;;;;5074492;28;20391;-71
2023/03/17 16:01:35;;;;;;;0.77;0.77;;;17.90;99.90;20.80;100518.00;;;;5076549;28;20199;-70
2023/03/17 16:04:04;;;;;;;0.60;0.30;;;17.70;99.90;20.80;100513.00;;;;5069216;28;20207;-70
2023/03/17 16:07:11;;;;;;;0.10;0.10;;;17.70;99.90;21.80;100510.00;;;;5060651;28;20189;-70
2023/03/17 16:09:44;;;;;;;0.80;0.80;;;18.00;99.90;21.00;100508.00;;;;5039834;28;20181;-71
2023/03/17 16:12:56;;;;;;;0.10;0.10;;;17.90;99.90;21.60;100506.00;;;;5054836;28;20211;-70
2023/03/17 16:16:08;;;;;;;9.50;1.33;;;18.10;99.90;21.00;100518.00;;;;5070671;28;20191;-70
2023/03/17 16:19:19;;;;;;;0.43;0.43;;;17.70;99.90;20.30;100521.00;;;;5048297;28;20189;-70
2023/03/17 16:22:30;;;;;;;0.10;0.10;;;17.50;99.90;21.50;100503.00;;;;5053603;28;20638;-71
2023/03/17 16:25:41;;;;;;;0.67;0.60;;;17.90;99.90;20.40;100516.00;;;;5066087;28;20192;-70
2023/03/17 16:28:21;;;;;;;0.10;0.10;;;17.50;99.90;21.40;100512.00;;;;5066757;28;20225;-71
2023/03/17 16:30:54;;;;;;;0.20;0.20;;;17.60;99.90;20.30;100530.00;;;;5084730;28;20196;-71
2023/03/17 16:34:08;;;;;;;2.93;0.87;;;17.60;99.90;21.10;100508.00;;;;5072346;28;20253;-71
2023/03/17 16:36:55;;;;;;;0.70;0.70;;;17.50;99.90;21.00;100509.00;;;;5051288;28;20200;-71
2023/03/17 16:39:38;;;;;;;1.00;0.60;;;17.60;99.90;20.00;100518.00;;;;5062747;28;20183;-71
2023/03/17 16:42:41;;;;;;;2.97;1.70;;;17.30;99.90;20.40;100490.00;;;;5061715;28;20192;-70
2023/03/17 16:45:44;;;;;;;0.93;0.93;;;17.30;99.90;20.00;100544.00;;;;5068470;28;20804;-70
2023/03/17 16:48:30;;;;;;;0.20;0.20;;;17.10;99.90;21.30;100538.00;;;;5056537;28;20178;-70
2023/03/17 16:51:29;;;;;;;0.60;0.60;;;17.40;99.90;21.00;100526.00;;;;5060765;28;20253;-70
2023/03/17 16:55:14;;;;;;;2.30;1.37;;;17.50;99.90;19.50;100569.00;;;;5049483;28;20189;-70
2023/03/17 16:58:25;;;;;;;0.33;0.33;;;17.10;99.90;19.70;100561.00;;;;5084190;28;20192;-70
2023/03/17 17:01:21;;;;;;;0.27;0.27;;;16.70;99.90;20.70;100550.00;;;;5071627;28;20660;-71
2023/03/17 17:04:12;;;;;;;0.40;0.40;;;16.80;99.90;20.80;100521.00;;;;5083522;28;20194;-69
2023/03/17 17:06:45;;;;;;;0.10;0.10;;;17.10;99.90;22.10;100545.00;;;;5071143;28;20190;-69
2023/03/17 17:09:20;;;;;;;0.10;0.10;;;17.50;99.90;22.50;100527.00;;;;5082884;28;20196;-71
2023/03/17 17:11:46;;;;;;;0.20;0.20;;;17.90;99.90;21.70;100543.00;;;;5073004;28;20296;-70
2023/03/17 17:14:12;;;;;;;0.10;0.10;;;17.80;99.90;21.50;100514.00;;;;5061232;28;20197;-71
2023/03/17 17:16:40;;;;;;;0.20;0.20;;;17.90;99.90;22.30;100530.00;;;;5073504;28;20190;-71
2023/03/17 17:19:28;;;;;;;0.30;0.30;;;17.90;99.90;21.10;100536.00;;;;5071802;28;20189;-71
2023/03/17 17:21:57;;;;;;;0.10;0.10;;;17.70;99.90;22.00;100531.00;;;;5077304;28;20188;-71
2023/03/17 17:24:23;;;;;;;0.10;0.10;;;17.70;99.90;22.10;100478.00;;;;5059621;28;20184;-70
2023/03/17 17:26:55;;;;;;;0.10;0.10;;;17.70;99.90;22.50;100537.00;;;;5072111;28;20207;-71
2023/03/17 17:29:23;;;;;;;0.20;0.20;;;17.90;99.90;22.30;100532.00;;;;5065330;28;20283;-70
2023/03/17 17:31:55;;;;;;;0.10;0.10;;;18.10;99.90;21.70;100532.00;;;;5055743;28;20244;-70
2023/03/17 17:34:58;;;;;;;1.50;1.40;;;18.00;99.90;20.90;100561.00;;;;5072255;28;20192;-71
2023/03/17 17:37:31;;;;;;;0.10;0.10;;;17.60;99.90;20.60;100578.00;;;;5077018;28;20720;-70
2023/03/17 17:40:00;;;;;;;0.27;0.27;;;17.30;99.90;20.60;100591.00;;;;5072062;28;20172;-70
2023/03/17 17:42:29;;;;;;;1.37;1.37;;;17.10;99.90;20.90;100589.00;;;;5071456;28;20189;-70
2023/03/17 17:44:55;;;;;;;0.10;0.10;;;17.00;99.90;21.40;100557.00;;;;5073156;28;20558;-70
2023/03/17 17:47:59;;;;;;;1.47;0.50;;;17.20;99.90;20.40;100572.00;;;;5075746;28;20203;-70
2023/03/17 17:50:38;;;;;;;0.10;0.10;;;17.10;99.90;21.00;100590.00;;;;5068038;28;20205;-70
2023/03/17 17:53:30;;;;;;;0.10;0.10;;;17.00;99.90;20.70;100581.00;;;;5074481;28;20212;-70
2023/03/17 17:56:07;;;;;;;0.47;0.47;;;17.00;99.90;20.40;100601.00;;;;5068797;28;20271;-70
2023/03/17 17:59:10;;;;;;;0.10;0.10;;;16.90;99.90;20.70;100579.00;;;;5072421;28;20203;-70
2023/03/17 18:01:44;;;;;;;0.30;0.30;;;16.90;99.90;20.00;100592.00;;;;5071614;28;20192;-73
2023/03/17 18:04:17;;;;;;;0.20;0.20;;;16.80;99.90;20.70;100590.00;;;;5062938;28;20265;-73
2023/03/17 18:07:47;;;;;;;0.10;0.10;;;16.80;99.90;20.80;100593.00;;;;5068219;28;20183;-73
2023/03/17 18:10:36;;;;;;;0.13;0.13;;;16.90;99.90;20.40;100602.00;;;;5066403;28;20513;-73
2023/03/17 18:13:09;;;;;;;0.10;0.10;;;16.80;99.90;20.60;100598.00;;;;5058650;28;20229;-73
2023/03/17 18:15:40;;;;;;;0.10;0.10;;;16.70;99.90;21.40;100600.00;;;;5071840;28;20710;-73
2023/03/17 18:18:09;;;;;;;0.10;0.10;;;17.00;99.90;20.30;100608.00;;;;5068636;28;20185;-73
2023/03/17 18:20:44;;;;;;;0.10;0.10;;;17.00;99.90;21.60;100595.00;;;;5065220;28;20188;-73
2023/03/17 18:23:14;;;;;;;0.10;0.10;;;17.10;99.90;21.40;100543.00;;;;5071966;28;20210;-73
2023/03/17 18:26:04;;;;;;;1.30;1.17;;;17.20;99.90;20.90;100546.00;;;;5054887;28;20207;-73
2023/03/17 18:28:33;;;;;;;0.10;0.10;;;17.00;99.90;21.10;100591.00;;;;5072019;28;20217;-73
2023/03/17 18:31:45;;;;;;;0.10;0.10;;;16.90;99.90;20.40;100615.00;;;;5066491;28;20178;-73
2023/03/17 18:34:23;;;;;;;0.10;0.10;;;16.80;99.90;20.50;100578.00;;;;5061787;28;20565;-73
2023/03/17 18:36:52;;;;;;;0.10;0.10;;;16.70;99.90;20.60;100611.00;;;;5070985;28;20306;-73
2023/03/17 18:39:23;;;;;;;0.10;0.10;;;16.80;99.90;20.30;100622.00;;;;5049910;28;20187;-73
2023/03/17 18:42:08;;;;;;;0.10;0.10;;;16.60;99.90;20.60;100609.00;;;;5068712;28;20266;-73
2023/03/17 18:44:34;;;;;;;0.30;0.30;;;16.60;99.90;20.60;100565.00;;;;5087943;28;20187;-73
2023/03/17 18:47:16;;;;;;;0.10;0.10;;;16.60;99.90;20.90;100603.00;;;;5071628;28;20239;-73
2023/03/17 18:50:05;;;;;;;0.10;0.10;;;16.80;99.90;20.90;100609.00;;;;5072070;28;20274;-73
2023/03/17 18:52:33;;;;;;;0.30;0.30;;;16.80;99.90;20.90;100590.00;;;;5054874;28;20199;-73
2023/03/17 18:55:04;;;;;;;0.10;0.10;;;16.90;99.90;20.60;100616.00;;;;5071741;28;20184;-73
2023/03/17 18:57:32;;;;;;;0.13;0.13;;;16.70;99.90;20.60;100616.00;;;;5072345;28;20216;-73
2023/03/17 18:59:58;;;;;;;1.10;1.07;;;16.70;99.90;20.10;100616.00;;;;5070777;28;20265;-73
2023/03/17 19:02:24;;;;;;;0.40;0.40;;;16.60;99.90;20.00;100619.00;;;;5091905;28;20275;-73
2023/03/17 19:04:51;;;;;;;0.13;0.13;;;16.40;99.90;19.80;100554.00;;;;5075467;28;20625;-72
2023/03/17 19:07:17;;;;;;;0.10;0.10;;;16.30;99.90;20.00;100628.00;;;;5074726;28;20221;-73
2023/03/17 19:09:44;;;;;;;0.43;0.43;;;16.30;99.90;19.90;100632.00;;;;5069102;28;20184;-73
2023/03/17 19:12:18;;;;;;;0.77;0.77;;;16.30;99.90;19.90;100627.00;;;;5074357;28;20260;-73
2023/03/17 19:14:44;;;;;;;0.10;0.10;;;16.30;99.90;19.80;100631.00;;;;5073687;28;20196;-73
2023/03/17 19:17:10;;;;;;;0.20;0.20;;;16.20;99.90;20.00;100609.00;;;;5071542;28;20267;-73
2023/03/17 19:19:40;;;;;;;1.50;1.50;;;16.20;99.90;19.80;100626.00;;;;5074544;28;20240;-73
2023/03/17 19:22:40;;;;;;;0.50;0.50;;;16.10;99.90;19.70;100636.00;;;;5083366;28;20533;-73
2023/03/17 19:25:10;;;;;;;0.10;0.10;;;16.00;99.90;19.50;100631.00;;;;5071425;28;20184;-73
2023/03/17 19:27:44;;;;;;;0.20;0.20;;;16.00;99.90;19.60;100630.00;;;;5091113;28;20194;-73
2023/03/17 19:30:11;;;;;;;0.27;0.27;;;15.90;99.90;19.70;100566.00;;;;5075940;28;20272;-73
2023/03/17 19:32:40;;;;;;;0.20;0.20;;;16.00;99.90;19.60;100633.00;;;;5076968;28;20215;-73
2023/03/17 19:35:10;;;;;;;0.20;0.20;;;15.80;99.90;19.20;100658.00;;;;5081108;28;20209;-73
2023/03/17 19:37:41;;;;;;;0.10;0.10;;;15.70;99.90;19.20;100641.00;;;;5074458;28;20265;-72
2023/03/17 19:41:09;;;;;;;0.60;0.60;;;15.60;99.90;19.20;100600.00;;;;5064458;28;20184;-73
2023/03/17 19:44:31;;;;;;;0.30;0.30;;;15.60;99.90;19.10;100652.00;;;;5071452;28;20196;-73
2023/03/17 19:47:52;;;;;;;0.20;0.20;;;15.50;99.90;18.20;100684.00;;;;5074492;28;20673;-73
2023/03/17 19:51:07;;;;;;;0.20;0.20;;;15.30;99.90;18.70;100677.00;;;;5074523;28;20177;-73
2023/03/17 19:58:12;;;;;;;0.10;0.10;;;15.50;99.90;19.90;100582.00;;;;5072309;28;20254;-73
2023/03/17 20:01:36;;;;;;;0.67;0.67;;;15.90;99.90;19.50;100659.00;;;;5071431;28;20192;-73
2023/03/17 20:04:42;;;;;;;0.20;0.20;;;15.60;99.90;19.20;100661.00;;;;5069231;28;20226;-73
2023/03/17 20:08:00;;;;;;;0.40;0.40;;;15.60;99.90;18.40;100685.00;;;;5047877;28;20195;-73
2023/03/17 20:11:10;;;;;;;0.30;0.30;;;15.30;99.90;18.70;100679.00;;;;5066321;28;20183;-73
2023/03/17 20:18:10;;;;;;;0.20;0.20;;;15.30;99.90;19.70;100655.00;;;;5068726;28;20200;-73
2023/03/17 20:21:37;;;;;;;0.20;0.20;;;15.50;99.90;20.10;100646.00;;;;5055578;28;20295;-73
2023/03/17 20:28:22;;;;;;;0.20;0.20;;;15.80;99.90;19.70;100586.00;;;;5072696;28;20228;-72